Stations météo

réclame
Mon MeteoGroup
S. Giovanni Teatino, Italie (16231): Température de l'air & dewpoint: 10.12.2017 00:00:00 - 16.12.2017 00:00:00 (CET)S. Giovanni Teatino, Italie (16231): Vitesse du vent: 10.12.2017 00:00:00 - 16.12.2017 00:00:00 (CET)S. Giovanni Teatino, Italie (16231): Direction du vent: 10.12.2017 00:00:00 - 16.12.2017 00:00:00 (CET)S. Giovanni Teatino, Italie (16231): reduced air pressure: 10.12.2017 00:00:00 - 16.12.2017 00:00:00 (CET)S. Giovanni Teatino, Italie (16231): Quantités de précipitations: 10.12.2017 00:00:00 - 16.12.2017 00:00:00 (CET)
Date & Time tt [°C] td [°C] ff [km/h] ff [knt] dd ppp [hPa] rr [mm]
16.12.2017 00:00:00 9,1 9,1 5 3 E 998,0 -
15.12.2017 23:00:00 9,0 9,0 2 1 NW 998,1 -
15.12.2017 22:00:00 9,4 9,2 4 2 E 998,4 -
15.12.2017 21:00:00 9,6 9,3 5 3 NW 998,6 -
15.12.2017 20:00:00 10,2 9,6 11 6 WNW 998,4 -
15.12.2017 19:00:00 11,8 11,2 11 6 SSW 996,9 -
15.12.2017 18:00:00 11,3 10,5 15 8 SSW 997,0 -
15.12.2017 17:00:00 12,1 10,5 15 8 S 997,3 -
15.12.2017 16:00:00 13,8 9,4 9 5 SSW 998,5 -
15.12.2017 15:00:00 14,1 9,3 26 14 SSW 998,6 -
15.12.2017 14:00:00 16,3 8,9 28 15 SSW 999,4 -
15.12.2017 13:00:00 16,7 9,1 18 10 SSW 999,9 0,0
15.12.2017 12:00:00 16,8 9,4 16 9 SSW 1001,4 -
15.12.2017 11:00:00 16,8 8,7 24 13 SSW 1001,8 -
15.12.2017 10:00:00 16,3 9,2 29 16 S 1002,5 -
15.12.2017 09:00:00 15,8 8,5 63 34 S 1002,8 -
15.12.2017 08:00:00 15,4 8,6 13 7 SSE 1003,2 -
15.12.2017 07:00:00 15,6 8,3 39 21 S 1003,0 0,0
15.12.2017 06:00:00 15,5 8,2 41 22 SSW 1003,3 -
15.12.2017 05:00:00 15,5 7,9 37 20 S 1003,7 -
15.12.2017 04:00:00 15,4 8,1 26 14 S 1004,3 -
15.12.2017 03:00:00 15,7 7,9 41 22 S 1004,7 -
15.12.2017 02:00:00 15,5 7,7 41 22 SSW 1004,8 -
15.12.2017 01:00:00 15,3 7,8 37 20 SSW 1005,9 0,0
15.12.2017 00:00:00 15,5 7,2 35 19 S 1006,8 -
14.12.2017 23:00:00 15,1 6,8 26 14 SSW 1007,5 -
14.12.2017 22:00:00 15,3 7,0 22 12 SSW 1007,8 -
14.12.2017 21:00:00 15,3 7,0 22 12 SSW 1007,8 -
14.12.2017 20:00:00 15,3 7,0 29 16 SSW 1008,3 -
14.12.2017 19:00:00 14,7 7,4 28 15 S 1008,5 0,0
14.12.2017 18:00:00 14,5 7,5 26 14 S 1009,1 -
14.12.2017 17:00:00 14,5 7,7 34 18 SSW 1009,2 -
14.12.2017 16:00:00 14,7 7,2 28 15 SSW 1008,6 -
14.12.2017 15:00:00 15,2 7,2 48 26 S 1008,0 -
14.12.2017 14:00:00 14,7 7,2 41 22 S 1009,3 -
14.12.2017 13:00:00 14,6 7,6 26 14 S 1009,9 0,0
14.12.2017 12:00:00 13,4 7,1 21 11 SW 1011,9 -
14.12.2017 11:00:00 14,0 6,0 22 12 SSW 1011,8 -
14.12.2017 10:00:00 13,3 5,9 9 5 SW 1011,9 -
14.12.2017 09:00:00 12,5 5,3 24 13 SSW 1011,5 -
14.12.2017 08:00:00 13,0 5,1 31 17 S 1011,7 -
14.12.2017 07:00:00 11,8 4,2 29 16 S 1011,7 -
14.12.2017 06:00:00 11,3 2,5 31 17 S 1012,7 -
14.12.2017 05:00:00 10,9 1,6 39 21 S 1013,0 -
14.12.2017 04:00:00 10,4 1,7 26 14 S 1013,6 -
14.12.2017 03:00:00 10,8 1,5 29 16 SSW 1014,2 -
14.12.2017 02:00:00 10,7 2,2 31 17 SSW 1014,2 -
14.12.2017 01:00:00 10,5 2,3 34 18 SSW 1014,7 0,0
14.12.2017 00:00:00 10,6 2,8 22 12 SSW 1015,4 -
13.12.2017 23:00:00 10,8 3,7 13 7 S 1015,7 -
13.12.2017 22:00:00 10,0 4,7 13 7 SW 1016,0 -
13.12.2017 21:00:00 8,9 6,1 16 9 SSW 1016,8 -
13.12.2017 20:00:00 9,4 9,2 5 3 S 1016,9 -
13.12.2017 19:00:00 8,8 8,8 4 2 SW 1017,2 -
13.12.2017 18:00:00 9,4 9,4 2 1 ESE 1017,1 -
13.12.2017 17:00:00 9,7 9,7 0 0 N 1017,3 -
13.12.2017 16:00:00 10,3 10,3 4 2 NNW 1017,2 -
13.12.2017 15:00:00 11,1 11,1 8 4 ENE 1016,3 -
13.12.2017 14:00:00 10,3 10,3 9 5 N 1016,9 -
13.12.2017 13:00:00 11,0 11,0 4 2 N 1017,3 -
13.12.2017 12:00:00 10,2 10,2 8 4 E 1017,8 -
13.12.2017 11:00:00 9,6 9,6 11 6 ENE 1018,1 -
13.12.2017 10:00:00 9,2 9,2 9 5 E 1018,5 -
13.12.2017 09:00:00 8,7 8,7 11 6 E 1018,1 -
13.12.2017 08:00:00 8,5 8,5 5 3 WSW 1018,6 -
13.12.2017 07:00:00 8,8 8,8 2 1 W 1018,1 -
13.12.2017 06:00:00 8,8 8,8 2 1 W 1017,5 -
13.12.2017 05:00:00 8,6 8,6 5 3 W 1016,7 -
13.12.2017 04:00:00 8,7 8,7 5 3 W 1017,4 -
13.12.2017 03:00:00 8,7 8,7 11 6 W 1017,1 -
13.12.2017 02:00:00 9,3 9,3 11 6 W 1016,6 -
13.12.2017 01:00:00 9,9 9,9 8 4 W 1016,2 -
13.12.2017 00:00:00 10,5 10,5 16 9 WNW 1015,7 -
12.12.2017 23:00:00 10,9 10,4 15 8 WNW 1015,4 -
12.12.2017 22:00:00 12,6 12,0 5 3 WNW 1014,7 -
12.12.2017 21:00:00 13,3 9,3 4 2 N 1013,9 -
12.12.2017 20:00:00 16,5 8,6 11 6 S 1013,3 -
12.12.2017 19:00:00 16,3 8,7 11 6 S 1012,8 0,0
12.12.2017 18:00:00 16,4 8,8 13 7 SE 1012,5 -
12.12.2017 17:00:00 16,7 8,6 9 5 SSE 1012,2 -
12.12.2017 16:00:00 17,0 8,9 11 6 SSE 1011,7 -
12.12.2017 15:00:00 17,7 9,5 18 10 S 1011,2 -
12.12.2017 14:00:00 18,5 9,2 11 6 SW 1011,0 -
12.12.2017 13:00:00 18,0 10,1 4 2 S 1011,0 0,0
12.12.2017 12:00:00 17,5 10,3 8 4 NNE 1010,8 -
12.12.2017 11:00:00 17,4 9,0 2 1 E 1010,8 -
12.12.2017 10:00:00 16,1 9,0 8 4 E 1010,7 -
12.12.2017 09:00:00 16,3 8,7 5 3 ESE 1009,5 -
12.12.2017 08:00:00 15,9 8,6 2 1 SSE 1009,0 -
12.12.2017 07:00:00 15,6 8,0 24 13 E 1008,1 -
12.12.2017 06:00:00 16,9 6,9 16 9 E 1007,5 -
12.12.2017 05:00:00 17,7 6,5 18 10 SE 1007,0 -
12.12.2017 04:00:00 18,2 6,6 16 9 ESE 1007,1 -
12.12.2017 03:00:00 18,0 6,4 24 13 ESE 1006,5 -
12.12.2017 02:00:00 18,4 6,2 18 10 S 1006,0 -
12.12.2017 01:00:00 18,7 6,1 46 25 S 1004,6 -
12.12.2017 00:00:00 18,8 6,2 35 19 S 1004,4 -
11.12.2017 23:00:00 18,7 6,5 44 24 S 1002,8 -
11.12.2017 22:00:00 18,5 6,9 29 16 S 1002,9 -
11.12.2017 21:00:00 18,9 6,3 26 14 S 1003,5 -
11.12.2017 20:00:00 18,3 7,3 15 8 SSW 1003,7 -
11.12.2017 19:00:00 18,2 7,2 22 12 S 1004,3 0,0
11.12.2017 18:00:00 18,2 7,2 28 15 SSW 1003,5 -
11.12.2017 17:00:00 16,9 8,3 21 11 S 1004,5 -
11.12.2017 16:00:00 16,9 8,0 26 14 WNW 1004,3 -
11.12.2017 15:00:00 16,6 9,0 8 4 SSE 1004,4 -
11.12.2017 14:00:00 15,1 9,4 28 15 E 1003,7 -
11.12.2017 13:00:00 15,5 9,6 28 15 E 1004,5 0,0
11.12.2017 12:00:00 15,1 9,6 22 12 E 1004,9 -
11.12.2017 11:00:00 15,9 10,0 11 6 ESE 1005,7 -
11.12.2017 10:00:00 15,4 9,7 11 6 ESE 1005,9 -
11.12.2017 09:00:00 14,2 9,6 24 13 E 1005,4 -
11.12.2017 08:00:00 13,5 9,1 22 12 E 1005,2 -
11.12.2017 07:00:00 13,2 8,6 28 15 E 1004,8 0,0
11.12.2017 06:00:00 12,9 7,9 18 10 ESE 1005,2 -
11.12.2017 05:00:00 13,2 7,1 5 3 SE 1005,5 -
11.12.2017 04:00:00 13,0 6,3 5 3 ESE 1006,0 -
11.12.2017 03:00:00 13,5 5,3 13 7 SSE 1006,7 -
11.12.2017 02:00:00 13,7 5,3 11 6 S 1007,2 -
11.12.2017 01:00:00 13,3 4,6 13 7 SE 1007,5 0,0
11.12.2017 00:00:00 13,8 4,8 16 9 E 1007,6 -
10.12.2017 23:00:00 12,8 4,7 15 8 SW 1008,0 -
10.12.2017 22:00:00 12,7 4,6 21 11 SE 1007,4 -
10.12.2017 21:00:00 12,8 4,7 18 10 NE 1007,4 -
10.12.2017 20:00:00 11,7 3,4 37 20 SSW 1008,4 -
10.12.2017 19:00:00 11,0 3,0 24 13 S 1009,3 0,0
10.12.2017 18:00:00 10,8 2,8 28 15 SSW 1009,6 -
10.12.2017 17:00:00 6,9 -4,0 18 10 ESE 1010,6 -
10.12.2017 16:00:00 8,4 -4,9 29 16 E 1011,8 -
10.12.2017 15:00:00 9,2 -1,9 18 10 SE 1013,4 -
10.12.2017 14:00:00 10,6 -1,9 9 5 S 1013,6 -
10.12.2017 13:00:00 10,6 -3,6 8 4 S 1015,0 0,0
10.12.2017 12:00:00 9,9 -9,4 15 8 S 1016,1 -
10.12.2017 11:00:00 8,7 -6,4 5 3 SE 1017,8 -
10.12.2017 10:00:00 7,2 -6,0 9 5 SSE 1018,1 -
10.12.2017 09:00:00 4,8 -4,9 13 7 S 1018,1 -
10.12.2017 08:00:00 2,6 -4,9 13 7 SSW 1018,0 -
10.12.2017 07:00:00 1,9 -4,9 8 4 SSW 1017,6 0,0
10.12.2017 06:00:00 1,8 -4,4 18 10 SSW 1017,9 -
10.12.2017 05:00:00 1,9 -4,5 13 7 SSW 1017,9 -
10.12.2017 04:00:00 2,0 -4,0 21 11 SSW 1018,0 -
10.12.2017 03:00:00 2,2 -3,4 16 9 SSW 1018,3 -
10.12.2017 02:00:00 1,1 -2,0 13 7 SSW 1018,5 -
10.12.2017 01:00:00 1,0 -1,4 13 7 WSW 1018,0 0,0
10.12.2017 00:00:00 2,0 -1,1 13 7 WSW 1018,5 -

tt = Température de l'air
td = dewpoint
ff = Vitesse du vent
dd = Direction du vent
ppp = reduced air pressure
rr = Quantités de précipitations

stations d'obs. à proximité